Time;durP1;ratioP1;P1;durP2;ratioP2;P2;SDS_P1;SDS_P2;PMS_P1;PMS_P2;Temp;Humidity;BMP_temperature;BMP_pressure;BME280_temperature;BME280_humidity;BME280_pressure;Samples;Min_cycle;Max_cycle;Signal;HPM_P1;HPM_P2
2020/12/01 00:00:04;;;;;;;26.65;13;;;;;;;-1.9;81.88574;95428.32;;;;
2020/12/01 00:01:06;;;;;;;26.65;13;;;;;;;-1.9;81.88574;95428.32;;;;
2020/12/01 00:02:10;;;;;;;26.65;13;;;;;;;-1.9;81.88574;95428.32;;;;
2020/12/01 00:03:10;;;;;;;26.65;13;;;;;;;-1.9;81.88574;95428.32;;;;
2020/12/01 00:04:11;;;;;;;26.65;13;;;;;;;-1.9;81.88574;95428.32;;;;
2020/12/01 00:05:11;;;;;;;27.05;14.05;;;;;;;-1.94;81.85645;95394.8;;;;
2020/12/01 00:06:15;;;;;;;27.05;14.05;;;;;;;-1.94;81.85645;95394.8;;;;
2020/12/01 00:07:16;;;;;;;27.05;14.05;;;;;;;-1.94;81.85645;95394.8;;;;
2020/12/01 00:08:17;;;;;;;27.05;14.05;;;;;;;-1.94;81.85645;95394.8;;;;
2020/12/01 00:09:17;;;;;;;27.05;14.05;;;;;;;-1.94;81.85645;95394.8;;;;
2020/12/01 00:10:18;;;;;;;27.05;14.05;;;;;;;-1.94;81.85645;95394.8;;;;
2020/12/01 00:11:20;;;;;;;27.05;14.05;;;;;;;-1.94;81.85645;95394.8;;;;
2020/12/01 00:12:20;;;;;;;27.05;14.05;;;;;;;-1.94;81.85645;95394.8;;;;
2020/12/01 00:13:22;;;;;;;27.05;14.05;;;;;;;-1.94;81.85645;95394.8;;;;
2020/12/01 00:14:22;;;;;;;27.05;14.05;;;;;;;-1.94;81.85645;95394.8;;;;
2020/12/01 00:15:23;;;;;;;26.3;12.8;;;;;;;-2.02;82.01563;95375.84;;;;
2020/12/01 00:16:23;;;;;;;26.3;12.8;;;;;;;-2.02;82.01563;95375.84;;;;
2020/12/01 00:17:24;;;;;;;26.3;12.8;;;;;;;-2.02;82.01563;95375.84;;;;
2020/12/01 00:18:24;;;;;;;26.3;12.8;;;;;;;-2.02;82.01563;95375.84;;;;
2020/12/01 00:19:25;;;;;;;26.3;12.8;;;;;;;-2.02;82.01563;95375.84;;;;
2020/12/01 00:20:25;;;;;;;26.3;12.8;;;;;;;-2.02;82.01563;95375.84;;;;
2020/12/01 00:21:26;;;;;;;26.3;12.8;;;;;;;-2.02;82.01563;95375.84;;;;
2020/12/01 00:22:26;;;;;;;26.3;12.8;;;;;;;-2.02;82.01563;95375.84;;;;
2020/12/01 00:23:27;;;;;;;26.3;12.8;;;;;;;-2.02;82.01563;95375.84;;;;
2020/12/01 00:24:27;;;;;;;26.3;12.8;;;;;;;-2.02;82.01563;95375.84;;;;
2020/12/01 00:25:28;;;;;;;26.3;12.8;;;;;;;-2.02;82.01563;95375.84;;;;
2020/12/01 00:26:28;;;;;;;22.65;11.95;;;;;;;-2.24;82.01563;95383.39;;;;
2020/12/01 00:27:29;;;;;;;22.65;11.95;;;;;;;-2.24;82.01563;95383.39;;;;
2020/12/01 00:28:29;;;;;;;22.65;11.95;;;;;;;-2.24;82.01563;95383.39;;;;
2020/12/01 00:29:30;;;;;;;22.65;11.95;;;;;;;-2.24;82.01563;95383.39;;;;
2020/12/01 00:30:30;;;;;;;22.65;11.95;;;;;;;-2.24;82.01563;95383.39;;;;
2020/12/01 00:31:31;;;;;;;22.65;11.95;;;;;;;-2.24;82.01563;95383.39;;;;
2020/12/01 00:32:36;;;;;;;22.65;11.95;;;;;;;-2.24;82.01563;95383.39;;;;
2020/12/01 00:33:37;;;;;;;22.65;11.95;;;;;;;-2.24;82.01563;95383.39;;;;
2020/12/01 00:34:38;;;;;;;22.65;11.95;;;;;;;-2.24;82.01563;95383.39;;;;
2020/12/01 00:35:38;;;;;;;22.65;11.95;;;;;;;-2.24;82.01563;95383.39;;;;
2020/12/01 00:36:40;;;;;;;22.65;11.95;;;;;;;-2.24;82.01563;95383.39;;;;
2020/12/01 00:37:41;;;;;;;21.95;10.8;;;;;;;-2.58;81.86914;95392.58;;;;
2020/12/01 00:38:42;;;;;;;21.95;10.8;;;;;;;-2.58;81.86914;95392.58;;;;
2020/12/01 00:39:42;;;;;;;21.95;10.8;;;;;;;-2.58;81.86914;95392.58;;;;
2020/12/01 00:40:43;;;;;;;21.95;10.8;;;;;;;-2.58;81.86914;95392.58;;;;
2020/12/01 00:41:43;;;;;;;21.95;10.8;;;;;;;-2.58;81.86914;95392.58;;;;
2020/12/01 00:42:44;;;;;;;21.95;10.8;;;;;;;-2.58;81.86914;95392.58;;;;
2020/12/01 00:43:44;;;;;;;21.95;10.8;;;;;;;-2.58;81.86914;95392.58;;;;
2020/12/01 00:44:45;;;;;;;21.95;10.8;;;;;;;-2.58;81.86914;95392.58;;;;
2020/12/01 00:45:45;;;;;;;21.95;10.8;;;;;;;-2.58;81.86914;95392.58;;;;
2020/12/01 00:46:46;;;;;;;21.95;10.8;;;;;;;-2.58;81.86914;95392.58;;;;
2020/12/01 00:47:47;;;;;;;28.25;16.9;;;;;;;-2.94;82.11914;95385.21;;;;
2020/12/01 00:48:47;;;;;;;28.25;16.9;;;;;;;-2.94;82.11914;95385.21;;;;
2020/12/01 00:49:48;;;;;;;28.25;16.9;;;;;;;-2.94;82.11914;95385.21;;;;
2020/12/01 00:50:48;;;;;;;28.25;16.9;;;;;;;-2.94;82.11914;95385.21;;;;
2020/12/01 00:51:49;;;;;;;28.25;16.9;;;;;;;-2.94;82.11914;95385.21;;;;
2020/12/01 00:52:49;;;;;;;28.25;16.9;;;;;;;-2.94;82.11914;95385.21;;;;
2020/12/01 00:53:50;;;;;;;28.25;16.9;;;;;;;-2.94;82.11914;95385.21;;;;
2020/12/01 00:54:51;;;;;;;28.25;16.9;;;;;;;-2.94;82.11914;95385.21;;;;
2020/12/01 00:55:51;;;;;;;28.25;16.9;;;;;;;-2.94;82.11914;95385.21;;;;
2020/12/01 00:56:52;;;;;;;28.25;16.9;;;;;;;-2.94;82.11914;95385.21;;;;
2020/12/01 00:57:56;;;;;;;28.25;16.9;;;;;;;-2.94;82.11914;95385.21;;;;
2020/12/01 00:58:57;;;;;;;25.4;12.2;;;;;;;-3.24;82.59961;95378.05;;;;
2020/12/01 00:59:57;;;;;;;25.4;12.2;;;;;;;-3.24;82.59961;95378.05;;;;
2020/12/01 01:00:57;;;;;;;25.4;12.2;;;;;;;-3.24;82.59961;95378.05;;;;
2020/12/01 01:01:58;;;;;;;25.4;12.2;;;;;;;-3.24;82.59961;95378.05;;;;
2020/12/01 01:02:58;;;;;;;25.4;12.2;;;;;;;-3.24;82.59961;95378.05;;;;
2020/12/01 01:03:59;;;;;;;25.4;12.2;;;;;;;-3.24;82.59961;95378.05;;;;
2020/12/01 01:05:00;;;;;;;25.4;12.2;;;;;;;-3.24;82.59961;95378.05;;;;
2020/12/01 01:06:01;;;;;;;25.4;12.2;;;;;;;-3.24;82.59961;95378.05;;;;
2020/12/01 01:07:01;;;;;;;25.4;12.2;;;;;;;-3.24;82.59961;95378.05;;;;
2020/12/01 01:08:02;;;;;;;25.4;12.2;;;;;;;-3.24;82.59961;95378.05;;;;
2020/12/01 01:09:04;;;;;;;26.9;16.15;;;;;;;-3.41;82.87305;95372.34;;;;
2020/12/01 01:10:04;;;;;;;26.9;16.15;;;;;;;-3.41;82.87305;95372.34;;;;
2020/12/01 01:11:05;;;;;;;26.9;16.15;;;;;;;-3.41;82.87305;95372.34;;;;
2020/12/01 01:12:06;;;;;;;26.9;16.15;;;;;;;-3.41;82.87305;95372.34;;;;
2020/12/01 01:13:07;;;;;;;26.9;16.15;;;;;;;-3.41;82.87305;95372.34;;;;
2020/12/01 01:14:07;;;;;;;26.9;16.15;;;;;;;-3.41;82.87305;95372.34;;;;
2020/12/01 01:15:08;;;;;;;26.9;16.15;;;;;;;-3.41;82.87305;95372.34;;;;
2020/12/01 01:16:10;;;;;;;26.9;16.15;;;;;;;-3.41;82.87305;95372.34;;;;
2020/12/01 01:17:10;;;;;;;26.9;16.15;;;;;;;-3.41;82.87305;95372.34;;;;
2020/12/01 01:18:11;;;;;;;26.9;16.15;;;;;;;-3.41;82.87305;95372.34;;;;
2020/12/01 01:19:11;;;;;;;26.9;16.15;;;;;;;-3.41;82.87305;95372.34;;;;
2020/12/01 01:20:14;;;;;;;24.45;11.85;;;;;;;-3.3;83.13379;95354.5;;;;
2020/12/01 01:21:14;;;;;;;24.45;11.85;;;;;;;-3.3;83.13379;95354.5;;;;
2020/12/01 01:22:15;;;;;;;24.45;11.85;;;;;;;-3.3;83.13379;95354.5;;;;
2020/12/01 01:23:15;;;;;;;24.45;11.85;;;;;;;-3.3;83.13379;95354.5;;;;
2020/12/01 01:24:16;;;;;;;24.45;11.85;;;;;;;-3.3;83.13379;95354.5;;;;
2020/12/01 01:25:18;;;;;;;24.45;11.85;;;;;;;-3.3;83.13379;95354.5;;;;
2020/12/01 01:26:19;;;;;;;24.45;11.85;;;;;;;-3.3;83.13379;95354.5;;;;
2020/12/01 01:27:20;;;;;;;24.45;11.85;;;;;;;-3.3;83.13379;95354.5;;;;
2020/12/01 01:28:20;;;;;;;24.45;11.85;;;;;;;-3.3;83.13379;95354.5;;;;
2020/12/01 01:29:21;;;;;;;24.45;11.85;;;;;;;-3.3;83.13379;95354.5;;;;
2020/12/01 01:30:23;;;;;;;28.8;13.75;;;;;;;-3.06;83.08984;95332.25;;;;
2020/12/01 01:31:24;;;;;;;28.8;13.75;;;;;;;-3.06;83.08984;95332.25;;;;
2020/12/01 01:32:24;;;;;;;28.8;13.75;;;;;;;-3.06;83.08984;95332.25;;;;
2020/12/01 01:33:26;;;;;;;28.8;13.75;;;;;;;-3.06;83.08984;95332.25;;;;
2020/12/01 01:34:27;;;;;;;28.8;13.75;;;;;;;-3.06;83.08984;95332.25;;;;
2020/12/01 01:35:27;;;;;;;28.8;13.75;;;;;;;-3.06;83.08984;95332.25;;;;
2020/12/01 01:36:27;;;;;;;28.8;13.75;;;;;;;-3.06;83.08984;95332.25;;;;
2020/12/01 01:37:32;;;;;;;28.8;13.75;;;;;;;-3.06;83.08984;95332.25;;;;
2020/12/01 01:38:32;;;;;;;28.8;13.75;;;;;;;-3.06;83.08984;95332.25;;;;
2020/12/01 01:39:33;;;;;;;28.8;13.75;;;;;;;-3.06;83.08984;95332.25;;;;
2020/12/01 01:40:33;;;;;;;28.8;13.75;;;;;;;-3.06;83.08984;95332.25;;;;
2020/12/01 01:41:34;;;;;;;28.8;14.2;;;;;;;-2.7;82.94238;95304.38;;;;
2020/12/01 01:42:37;;;;;;;28.8;14.2;;;;;;;-2.7;82.94238;95304.38;;;;
2020/12/01 01:43:38;;;;;;;28.8;14.2;;;;;;;-2.7;82.94238;95304.38;;;;
2020/12/01 01:44:38;;;;;;;28.8;14.2;;;;;;;-2.7;82.94238;95304.38;;;;
2020/12/01 01:45:39;;;;;;;28.8;14.2;;;;;;;-2.7;82.94238;95304.38;;;;
2020/12/01 01:46:43;;;;;;;28.8;14.2;;;;;;;-2.7;82.94238;95304.38;;;;
2020/12/01 01:47:46;;;;;;;28.8;14.2;;;;;;;-2.7;82.94238;95304.38;;;;
2020/12/01 01:48:47;;;;;;;28.8;14.2;;;;;;;-2.7;82.94238;95304.38;;;;
2020/12/01 01:49:48;;;;;;;28.8;14.2;;;;;;;-2.7;82.94238;95304.38;;;;
2020/12/01 01:50:55;;;;;;;28.8;14.2;;;;;;;-2.7;82.94238;95304.38;;;;
2020/12/01 01:52:00;;;;;;;26.9;12.2;;;;;;;-2.41;82.67871;95291.68;;;;
2020/12/01 01:53:01;;;;;;;26.9;12.2;;;;;;;-2.41;82.67871;95291.68;;;;
2020/12/01 01:54:02;;;;;;;26.9;12.2;;;;;;;-2.41;82.67871;95291.68;;;;
2020/12/01 01:55:04;;;;;;;26.9;12.2;;;;;;;-2.41;82.67871;95291.68;;;;
2020/12/01 01:56:09;;;;;;;26.9;12.2;;;;;;;-2.41;82.67871;95291.68;;;;
2020/12/01 01:57:12;;;;;;;26.9;12.2;;;;;;;-2.41;82.67871;95291.68;;;;
2020/12/01 01:58:13;;;;;;;26.9;12.2;;;;;;;-2.41;82.67871;95291.68;;;;
2020/12/01 01:59:16;;;;;;;26.9;12.2;;;;;;;-2.41;82.67871;95291.68;;;;
2020/12/01 02:00:28;;;;;;;26.9;12.2;;;;;;;-2.41;82.67871;95291.68;;;;
2020/12/01 02:01:35;;;;;;;26.9;12.2;;;;;;;-2.41;82.67871;95291.68;;;;
2020/12/01 02:02:36;;;;;;;24.75;12.85;;;;;;;-2.29;82.31738;95296.22;;;;
2020/12/01 02:03:36;;;;;;;24.75;12.85;;;;;;;-2.29;82.31738;95296.22;;;;
2020/12/01 02:04:39;;;;;;;24.75;12.85;;;;;;;-2.29;82.31738;95296.22;;;;
2020/12/01 02:05:40;;;;;;;24.75;12.85;;;;;;;-2.29;82.31738;95296.22;;;;
2020/12/01 02:06:40;;;;;;;24.75;12.85;;;;;;;-2.29;82.31738;95296.22;;;;
2020/12/01 02:07:43;;;;;;;24.75;12.85;;;;;;;-2.29;82.31738;95296.22;;;;
2020/12/01 02:08:44;;;;;;;24.75;12.85;;;;;;;-2.29;82.31738;95296.22;;;;
2020/12/01 02:09:47;;;;;;;24.75;12.85;;;;;;;-2.29;82.31738;95296.22;;;;
2020/12/01 02:10:53;;;;;;;24.75;12.85;;;;;;;-2.29;82.31738;95296.22;;;;
2020/12/01 02:11:55;;;;;;;24.75;12.85;;;;;;;-2.29;82.31738;95296.22;;;;
2020/12/01 02:12:57;;;;;;;25.35;12.9;;;;;;;-2.23;82.29688;95331.29;;;;
2020/12/01 02:14:01;;;;;;;25.35;12.9;;;;;;;-2.23;82.29688;95331.29;;;;
2020/12/01 02:15:05;;;;;;;25.35;12.9;;;;;;;-2.23;82.29688;95331.29;;;;
2020/12/01 02:16:10;;;;;;;25.35;12.9;;;;;;;-2.23;82.29688;95331.29;;;;
2020/12/01 02:17:10;;;;;;;25.35;12.9;;;;;;;-2.23;82.29688;95331.29;;;;
2020/12/01 02:18:18;;;;;;;25.35;12.9;;;;;;;-2.23;82.29688;95331.29;;;;
2020/12/01 02:19:28;;;;;;;25.35;12.9;;;;;;;-2.23;82.29688;95331.29;;;;
2020/12/01 02:20:32;;;;;;;25.35;12.9;;;;;;;-2.23;82.29688;95331.29;;;;
2020/12/01 02:21:32;;;;;;;25.35;12.9;;;;;;;-2.23;82.29688;95331.29;;;;
2020/12/01 02:22:36;;;;;;;25.35;12.9;;;;;;;-2.23;82.29688;95331.29;;;;
2020/12/01 02:23:37;;;;;;;25.6;13.1;;;;;;;-2.1;82.45703;95292.41;;;;
2020/12/01 02:24:37;;;;;;;25.6;13.1;;;;;;;-2.1;82.45703;95292.41;;;;
2020/12/01 02:25:38;;;;;;;25.6;13.1;;;;;;;-2.1;82.45703;95292.41;;;;
2020/12/01 02:26:39;;;;;;;25.6;13.1;;;;;;;-2.1;82.45703;95292.41;;;;
2020/12/01 02:27:39;;;;;;;25.6;13.1;;;;;;;-2.1;82.45703;95292.41;;;;
2020/12/01 02:28:40;;;;;;;25.6;13.1;;;;;;;-2.1;82.45703;95292.41;;;;
2020/12/01 02:29:40;;;;;;;25.6;13.1;;;;;;;-2.1;82.45703;95292.41;;;;
2020/12/01 02:30:45;;;;;;;25.6;13.1;;;;;;;-2.1;82.45703;95292.41;;;;
2020/12/01 02:31:45;;;;;;;25.6;13.1;;;;;;;-2.1;82.45703;95292.41;;;;
2020/12/01 02:32:46;;;;;;;25.6;13.1;;;;;;;-2.1;82.45703;95292.41;;;;
2020/12/01 02:33:46;;;;;;;25.6;13.1;;;;;;;-2.1;82.45703;95292.41;;;;
2020/12/01 02:34:47;;;;;;;29;13.55;;;;;;;-2.15;82.32617;95262.08;;;;
2020/12/01 02:35:48;;;;;;;29;13.55;;;;;;;-2.15;82.32617;95262.08;;;;
2020/12/01 02:36:48;;;;;;;29;13.55;;;;;;;-2.15;82.32617;95262.08;;;;
2020/12/01 02:37:48;;;;;;;29;13.55;;;;;;;-2.15;82.32617;95262.08;;;;
2020/12/01 02:38:49;;;;;;;29;13.55;;;;;;;-2.15;82.32617;95262.08;;;;
2020/12/01 02:39:50;;;;;;;29;13.55;;;;;;;-2.15;82.32617;95262.08;;;;
2020/12/01 02:40:50;;;;;;;29;13.55;;;;;;;-2.15;82.32617;95262.08;;;;
2020/12/01 02:41:51;;;;;;;29;13.55;;;;;;;-2.15;82.32617;95262.08;;;;
2020/12/01 02:42:52;;;;;;;29;13.55;;;;;;;-2.15;82.32617;95262.08;;;;
2020/12/01 02:43:54;;;;;;;29;13.55;;;;;;;-2.15;82.32617;95262.08;;;;
2020/12/01 02:44:54;;;;;;;30.35;14.8;;;;;;;-2.26;82.50879;95254;;;;
2020/12/01 02:45:58;;;;;;;30.35;14.8;;;;;;;-2.26;82.50879;95254;;;;
2020/12/01 02:46:59;;;;;;;30.35;14.8;;;;;;;-2.26;82.50879;95254;;;;
2020/12/01 02:48:02;;;;;;;30.35;14.8;;;;;;;-2.26;82.50879;95254;;;;
2020/12/01 02:49:03;;;;;;;30.35;14.8;;;;;;;-2.26;82.50879;95254;;;;
2020/12/01 02:50:06;;;;;;;30.35;14.8;;;;;;;-2.26;82.50879;95254;;;;
2020/12/01 02:51:07;;;;;;;30.35;14.8;;;;;;;-2.26;82.50879;95254;;;;
2020/12/01 02:52:07;;;;;;;30.35;14.8;;;;;;;-2.26;82.50879;95254;;;;
2020/12/01 02:53:08;;;;;;;30.35;14.8;;;;;;;-2.26;82.50879;95254;;;;
2020/12/01 02:54:08;;;;;;;30.35;14.8;;;;;;;-2.26;82.50879;95254;;;;
2020/12/01 02:55:09;;;;;;;30.35;14.8;;;;;;;-2.26;82.50879;95254;;;;
2020/12/01 02:56:09;;;;;;;27.9;13.1;;;;;;;-2.38;82.66309;95236.78;;;;
2020/12/01 02:57:10;;;;;;;27.9;13.1;;;;;;;-2.38;82.66309;95236.78;;;;
2020/12/01 02:58:10;;;;;;;27.9;13.1;;;;;;;-2.38;82.66309;95236.78;;;;
2020/12/01 02:59:11;;;;;;;27.9;13.1;;;;;;;-2.38;82.66309;95236.78;;;;
2020/12/01 03:00:11;;;;;;;27.9;13.1;;;;;;;-2.38;82.66309;95236.78;;;;
2020/12/01 03:01:12;;;;;;;27.9;13.1;;;;;;;-2.38;82.66309;95236.78;;;;
2020/12/01 03:02:12;;;;;;;27.9;13.1;;;;;;;-2.38;82.66309;95236.78;;;;
2020/12/01 03:03:13;;;;;;;27.9;13.1;;;;;;;-2.38;82.66309;95236.78;;;;
2020/12/01 03:04:13;;;;;;;27.9;13.1;;;;;;;-2.38;82.66309;95236.78;;;;
2020/12/01 03:05:15;;;;;;;27.9;13.1;;;;;;;-2.38;82.66309;95236.78;;;;
2020/12/01 03:06:15;;;;;;;25.8;12.65;;;;;;;-2.48;82.87109;95212.27;;;;
2020/12/01 03:07:19;;;;;;;25.8;12.65;;;;;;;-2.48;82.87109;95212.27;;;;
2020/12/01 03:08:19;;;;;;;25.8;12.65;;;;;;;-2.48;82.87109;95212.27;;;;
2020/12/01 03:09:20;;;;;;;25.8;12.65;;;;;;;-2.48;82.87109;95212.27;;;;
2020/12/01 03:10:20;;;;;;;25.8;12.65;;;;;;;-2.48;82.87109;95212.27;;;;
2020/12/01 03:11:21;;;;;;;25.8;12.65;;;;;;;-2.48;82.87109;95212.27;;;;
2020/12/01 03:12:22;;;;;;;25.8;12.65;;;;;;;-2.48;82.87109;95212.27;;;;
2020/12/01 03:13:22;;;;;;;25.8;12.65;;;;;;;-2.48;82.87109;95212.27;;;;
2020/12/01 03:14:24;;;;;;;25.8;12.65;;;;;;;-2.48;82.87109;95212.27;;;;
2020/12/01 03:15:25;;;;;;;25.8;12.65;;;;;;;-2.48;82.87109;95212.27;;;;
2020/12/01 03:16:25;;;;;;;25.8;12.65;;;;;;;-2.48;82.87109;95212.27;;;;
2020/12/01 03:17:26;;;;;;;25.6;12.7;;;;;;;-2.62;82.84277;95220.37;;;;
2020/12/01 03:18:26;;;;;;;25.6;12.7;;;;;;;-2.62;82.84277;95220.37;;;;
2020/12/01 03:19:27;;;;;;;25.6;12.7;;;;;;;-2.62;82.84277;95220.37;;;;
2020/12/01 03:20:27;;;;;;;25.6;12.7;;;;;;;-2.62;82.84277;95220.37;;;;
2020/12/01 03:21:28;;;;;;;25.6;12.7;;;;;;;-2.62;82.84277;95220.37;;;;
2020/12/01 03:22:28;;;;;;;25.6;12.7;;;;;;;-2.62;82.84277;95220.37;;;;
2020/12/01 03:23:28;;;;;;;25.6;12.7;;;;;;;-2.62;82.84277;95220.37;;;;
2020/12/01 03:24:29;;;;;;;25.6;12.7;;;;;;;-2.62;82.84277;95220.37;;;;
2020/12/01 03:25:29;;;;;;;25.6;12.7;;;;;;;-2.62;82.84277;95220.37;;;;
2020/12/01 03:26:30;;;;;;;25.6;12.7;;;;;;;-2.62;82.84277;95220.37;;;;
2020/12/01 03:27:30;;;;;;;25.6;12.7;;;;;;;-2.62;82.84277;95220.37;;;;
2020/12/01 03:28:31;;;;;;;29.1;14.3;;;;;;;-2.76;83.12598;95207.76;;;;
2020/12/01 03:29:32;;;;;;;29.1;14.3;;;;;;;-2.76;83.12598;95207.76;;;;
2020/12/01 03:30:32;;;;;;;29.1;14.3;;;;;;;-2.76;83.12598;95207.76;;;;
2020/12/01 03:31:32;;;;;;;29.1;14.3;;;;;;;-2.76;83.12598;95207.76;;;;
2020/12/01 03:32:33;;;;;;;29.1;14.3;;;;;;;-2.76;83.12598;95207.76;;;;
2020/12/01 03:33:34;;;;;;;29.1;14.3;;;;;;;-2.76;83.12598;95207.76;;;;
2020/12/01 03:34:35;;;;;;;29.1;14.3;;;;;;;-2.76;83.12598;95207.76;;;;
2020/12/01 03:35:35;;;;;;;29.1;14.3;;;;;;;-2.76;83.12598;95207.76;;;;
2020/12/01 03:36:36;;;;;;;29.1;14.3;;;;;;;-2.76;83.12598;95207.76;;;;
2020/12/01 03:37:36;;;;;;;29.1;14.3;;;;;;;-2.76;83.12598;95207.76;;;;
2020/12/01 03:38:37;;;;;;;24.85;12.9;;;;;;;-2.83;83.34863;95209.38;;;;
2020/12/01 03:39:37;;;;;;;24.85;12.9;;;;;;;-2.83;83.34863;95209.38;;;;
2020/12/01 03:40:38;;;;;;;24.85;12.9;;;;;;;-2.83;83.34863;95209.38;;;;
2020/12/01 03:41:38;;;;;;;24.85;12.9;;;;;;;-2.83;83.34863;95209.38;;;;
2020/12/01 03:42:39;;;;;;;24.85;12.9;;;;;;;-2.83;83.34863;95209.38;;;;
2020/12/01 03:43:39;;;;;;;24.85;12.9;;;;;;;-2.83;83.34863;95209.38;;;;
2020/12/01 03:44:40;;;;;;;24.85;12.9;;;;;;;-2.83;83.34863;95209.38;;;;
2020/12/01 03:45:41;;;;;;;24.85;12.9;;;;;;;-2.83;83.34863;95209.38;;;;
2020/12/01 03:46:42;;;;;;;24.85;12.9;;;;;;;-2.83;83.34863;95209.38;;;;
2020/12/01 03:47:42;;;;;;;24.85;12.9;;;;;;;-2.83;83.34863;95209.38;;;;
2020/12/01 03:48:43;;;;;;;24.85;12.9;;;;;;;-2.83;83.34863;95209.38;;;;
2020/12/01 03:49:43;;;;;;;27.45;13.5;;;;;;;-2.76;83.37402;95185.24;;;;
2020/12/01 03:50:44;;;;;;;27.45;13.5;;;;;;;-2.76;83.37402;95185.24;;;;
2020/12/01 03:51:44;;;;;;;27.45;13.5;;;;;;;-2.76;83.37402;95185.24;;;;
2020/12/01 03:52:45;;;;;;;27.45;13.5;;;;;;;-2.76;83.37402;95185.24;;;;
2020/12/01 03:53:45;;;;;;;27.45;13.5;;;;;;;-2.76;83.37402;95185.24;;;;
2020/12/01 03:54:46;;;;;;;27.45;13.5;;;;;;;-2.76;83.37402;95185.24;;;;
2020/12/01 03:55:46;;;;;;;27.45;13.5;;;;;;;-2.76;83.37402;95185.24;;;;
2020/12/01 03:56:47;;;;;;;27.45;13.5;;;;;;;-2.76;83.37402;95185.24;;;;
2020/12/01 03:57:47;;;;;;;27.45;13.5;;;;;;;-2.76;83.37402;95185.24;;;;
2020/12/01 03:58:48;;;;;;;27.45;13.5;;;;;;;-2.76;83.37402;95185.24;;;;
2020/12/01 03:59:49;;;;;;;27.6;13.5;;;;;;;-2.72;83.22852;95175.6;;;;
2020/12/01 04:00:49;;;;;;;27.6;13.5;;;;;;;-2.72;83.22852;95175.6;;;;
2020/12/01 04:01:50;;;;;;;27.6;13.5;;;;;;;-2.72;83.22852;95175.6;;;;
2020/12/01 04:02:50;;;;;;;27.6;13.5;;;;;;;-2.72;83.22852;95175.6;;;;
2020/12/01 04:03:52;;;;;;;27.6;13.5;;;;;;;-2.72;83.22852;95175.6;;;;
2020/12/01 04:04:52;;;;;;;27.6;13.5;;;;;;;-2.72;83.22852;95175.6;;;;
2020/12/01 04:05:53;;;;;;;27.6;13.5;;;;;;;-2.72;83.22852;95175.6;;;;
2020/12/01 04:06:53;;;;;;;27.6;13.5;;;;;;;-2.72;83.22852;95175.6;;;;
2020/12/01 04:07:55;;;;;;;27.6;13.5;;;;;;;-2.72;83.22852;95175.6;;;;
2020/12/01 04:08:56;;;;;;;27.6;13.5;;;;;;;-2.72;83.22852;95175.6;;;;
2020/12/01 04:09:57;;;;;;;27.6;13.5;;;;;;;-2.72;83.22852;95175.6;;;;
2020/12/01 04:10:58;;;;;;;27.4;13.6;;;;;;;-2.66;83.31152;95164.37;;;;
2020/12/01 04:12:01;;;;;;;27.4;13.6;;;;;;;-2.66;83.31152;95164.37;;;;
2020/12/01 04:13:02;;;;;;;27.4;13.6;;;;;;;-2.66;83.31152;95164.37;;;;
2020/12/01 04:14:03;;;;;;;27.4;13.6;;;;;;;-2.66;83.31152;95164.37;;;;
2020/12/01 04:15:04;;;;;;;27.4;13.6;;;;;;;-2.66;83.31152;95164.37;;;;
2020/12/01 04:16:05;;;;;;;27.4;13.6;;;;;;;-2.66;83.31152;95164.37;;;;
2020/12/01 04:17:05;;;;;;;27.4;13.6;;;;;;;-2.66;83.31152;95164.37;;;;
2020/12/01 04:18:05;;;;;;;27.4;13.6;;;;;;;-2.66;83.31152;95164.37;;;;
2020/12/01 04:19:06;;;;;;;27.4;13.6;;;;;;;-2.66;83.31152;95164.37;;;;
2020/12/01 04:20:06;;;;;;;27.4;13.6;;;;;;;-2.66;83.31152;95164.37;;;;
2020/12/01 04:21:07;;;;;;;27.4;14.05;;;;;;;-2.55;83.34277;95154.85;;;;
2020/12/01 04:22:08;;;;;;;27.4;14.05;;;;;;;-2.55;83.34277;95154.85;;;;
2020/12/01 04:23:08;;;;;;;27.4;14.05;;;;;;;-2.55;83.34277;95154.85;;;;
2020/12/01 04:24:09;;;;;;;27.4;14.05;;;;;;;-2.55;83.34277;95154.85;;;;
2020/12/01 04:25:09;;;;;;;27.4;14.05;;;;;;;-2.55;83.34277;95154.85;;;;
2020/12/01 04:26:11;;;;;;;27.4;14.05;;;;;;;-2.55;83.34277;95154.85;;;;
2020/12/01 04:27:11;;;;;;;27.4;14.05;;;;;;;-2.55;83.34277;95154.85;;;;
2020/12/01 04:28:14;;;;;;;27.4;14.05;;;;;;;-2.55;83.34277;95154.85;;;;
2020/12/01 04:29:14;;;;;;;27.4;14.05;;;;;;;-2.55;83.34277;95154.85;;;;
2020/12/01 04:30:15;;;;;;;27.4;14.05;;;;;;;-2.55;83.34277;95154.85;;;;
2020/12/01 04:31:17;;;;;;;27.4;14.05;;;;;;;-2.55;83.34277;95154.85;;;;
2020/12/01 04:32:17;;;;;;;25.4;12.9;;;;;;;-2.32;83.37891;95150.2;;;;
2020/12/01 04:33:18;;;;;;;25.4;12.9;;;;;;;-2.32;83.37891;95150.2;;;;
2020/12/01 04:34:18;;;;;;;25.4;12.9;;;;;;;-2.32;83.37891;95150.2;;;;
2020/12/01 04:35:19;;;;;;;25.4;12.9;;;;;;;-2.32;83.37891;95150.2;;;;
2020/12/01 04:36:20;;;;;;;25.4;12.9;;;;;;;-2.32;83.37891;95150.2;;;;
2020/12/01 04:37:21;;;;;;;25.4;12.9;;;;;;;-2.32;83.37891;95150.2;;;;
2020/12/01 04:38:21;;;;;;;25.4;12.9;;;;;;;-2.32;83.37891;95150.2;;;;
2020/12/01 04:39:22;;;;;;;25.4;12.9;;;;;;;-2.32;83.37891;95150.2;;;;
2020/12/01 04:40:23;;;;;;;25.4;12.9;;;;;;;-2.32;83.37891;95150.2;;;;
2020/12/01 04:41:29;;;;;;;25.4;12.9;;;;;;;-2.32;83.37891;95150.2;;;;
2020/12/01 04:42:30;;;;;;;21.25;11.3;;;;;;;-2.17;83.45996;95137.12;;;;
2020/12/01 04:43:30;;;;;;;21.25;11.3;;;;;;;-2.17;83.45996;95137.12;;;;
2020/12/01 04:44:34;;;;;;;21.25;11.3;;;;;;;-2.17;83.45996;95137.12;;;;
2020/12/01 04:45:39;;;;;;;21.25;11.3;;;;;;;-2.17;83.45996;95137.12;;;;
2020/12/01 04:46:42;;;;;;;21.25;11.3;;;;;;;-2.17;83.45996;95137.12;;;;
2020/12/01 04:47:43;;;;;;;21.25;11.3;;;;;;;-2.17;83.45996;95137.12;;;;
2020/12/01 04:48:54;;;;;;;21.25;11.3;;;;;;;-2.17;83.45996;95137.12;;;;
2020/12/01 04:49:58;;;;;;;21.25;11.3;;;;;;;-2.17;83.45996;95137.12;;;;
2020/12/01 04:51:04;;;;;;;21.25;11.3;;;;;;;-2.17;83.45996;95137.12;;;;
2020/12/01 04:52:20;;;;;;;21.25;11.3;;;;;;;-2.17;83.45996;95137.12;;;;
2020/12/01 04:53:41;;;;;;;21;11.2;;;;;;;-2.03;83.23926;95128.61;;;;
2020/12/01 04:55:00;;;;;;;21;11.2;;;;;;;-2.03;83.23926;95128.61;;;;
2020/12/01 04:56:16;;;;;;;21;11.2;;;;;;;-2.03;83.23926;95128.61;;;;
2020/12/01 04:57:30;;;;;;;21;11.2;;;;;;;-2.03;83.23926;95128.61;;;;
2020/12/01 04:58:40;;;;;;;21;11.2;;;;;;;-2.03;83.23926;95128.61;;;;
2020/12/01 05:00:26;;;;;;;21;11.2;;;;;;;-2.03;83.23926;95128.61;;;;
2020/12/01 05:01:35;;;;;;;21;11.2;;;;;;;-2.03;83.23926;95128.61;;;;
2020/12/01 05:03:03;;;;;;;21;11.2;;;;;;;-2.03;83.23926;95128.61;;;;
2020/12/01 05:04:16;;;;;;;19.1;10.6;;;;;;;-1.9;83.33496;95107.39;;;;
2020/12/01 05:05:24;;;;;;;19.1;10.6;;;;;;;-1.9;83.33496;95107.39;;;;
2020/12/01 05:07:16;;;;;;;19.1;10.6;;;;;;;-1.9;83.33496;95107.39;;;;
2020/12/01 05:08:36;;;;;;;19.1;10.6;;;;;;;-1.9;83.33496;95107.39;;;;
2020/12/01 05:09:46;;;;;;;19.1;10.6;;;;;;;-1.9;83.33496;95107.39;;;;
2020/12/01 05:10:53;;;;;;;19.1;10.6;;;;;;;-1.9;83.33496;95107.39;;;;
2020/12/01 05:11:58;;;;;;;19.1;10.6;;;;;;;-1.9;83.33496;95107.39;;;;
2020/12/01 05:13:02;;;;;;;19.1;10.6;;;;;;;-1.9;83.33496;95107.39;;;;
2020/12/01 05:14:16;;;;;;;19.1;10.6;;;;;;;-1.9;83.33496;95107.39;;;;
2020/12/01 05:15:24;;;;;;;18.4;10.15;;;;;;;-1.81;83.2793;95082.58;;;;
2020/12/01 05:16:31;;;;;;;18.4;10.15;;;;;;;-1.81;83.2793;95082.58;;;;
2020/12/01 05:17:45;;;;;;;18.4;10.15;;;;;;;-1.81;83.2793;95082.58;;;;
2020/12/01 05:19:13;;;;;;;18.4;10.15;;;;;;;-1.81;83.2793;95082.58;;;;
2020/12/01 05:20:31;;;;;;;18.4;10.15;;;;;;;-1.81;83.2793;95082.58;;;;
2020/12/01 05:21:37;;;;;;;18.4;10.15;;;;;;;-1.81;83.2793;95082.58;;;;
2020/12/01 05:22:38;;;;;;;18.4;10.15;;;;;;;-1.81;83.2793;95082.58;;;;
2020/12/01 05:23:44;;;;;;;18.4;10.15;;;;;;;-1.81;83.2793;95082.58;;;;
2020/12/01 05:24:48;;;;;;;18.4;10.15;;;;;;;-1.81;83.2793;95082.58;;;;
2020/12/01 05:25:50;;;;;;;16.3;9.6;;;;;;;-1.72;83.18555;95077.12;;;;
2020/12/01 05:26:58;;;;;;;16.3;9.6;;;;;;;-1.72;83.18555;95077.12;;;;
2020/12/01 05:27:58;;;;;;;16.3;9.6;;;;;;;-1.72;83.18555;95077.12;;;;
2020/12/01 05:29:08;;;;;;;16.3;9.6;;;;;;;-1.72;83.18555;95077.12;;;;
2020/12/01 05:30:26;;;;;;;16.3;9.6;;;;;;;-1.72;83.18555;95077.12;;;;
2020/12/01 05:31:26;;;;;;;16.3;9.6;;;;;;;-1.72;83.18555;95077.12;;;;
2020/12/01 05:32:41;;;;;;;16.3;9.6;;;;;;;-1.72;83.18555;95077.12;;;;
2020/12/01 05:33:52;;;;;;;16.3;9.6;;;;;;;-1.72;83.18555;95077.12;;;;
2020/12/01 05:35:01;;;;;;;16.3;9.6;;;;;;;-1.72;83.18555;95077.12;;;;
2020/12/01 05:36:09;;;;;;;18.85;9.799999;;;;;;;-1.64;83.25195;95055.03;;;;
2020/12/01 05:37:18;;;;;;;18.85;9.799999;;;;;;;-1.64;83.25195;95055.03;;;;
2020/12/01 05:38:18;;;;;;;18.85;9.799999;;;;;;;-1.64;83.25195;95055.03;;;;
2020/12/01 05:39:19;;;;;;;18.85;9.799999;;;;;;;-1.64;83.25195;95055.03;;;;
2020/12/01 05:40:23;;;;;;;18.85;9.799999;;;;;;;-1.64;83.25195;95055.03;;;;
2020/12/01 05:41:26;;;;;;;18.85;9.799999;;;;;;;-1.64;83.25195;95055.03;;;;
2020/12/01 05:42:30;;;;;;;18.85;9.799999;;;;;;;-1.64;83.25195;95055.03;;;;
2020/12/01 05:43:30;;;;;;;18.85;9.799999;;;;;;;-1.64;83.25195;95055.03;;;;
2020/12/01 05:44:34;;;;;;;18.85;9.799999;;;;;;;-1.64;83.25195;95055.03;;;;
2020/12/01 05:45:35;;;;;;;18.85;9.799999;;;;;;;-1.64;83.25195;95055.03;;;;
2020/12/01 05:46:36;;;;;;;16.3;8.799999;;;;;;;-1.54;83.27246;95056.59;;;;
2020/12/01 05:47:42;;;;;;;16.3;8.799999;;;;;;;-1.54;83.27246;95056.59;;;;
2020/12/01 05:48:48;;;;;;;16.3;8.799999;;;;;;;-1.54;83.27246;95056.59;;;;
2020/12/01 05:49:58;;;;;;;16.3;8.799999;;;;;;;-1.54;83.27246;95056.59;;;;
2020/12/01 05:51:07;;;;;;;16.3;8.799999;;;;;;;-1.54;83.27246;95056.59;;;;
2020/12/01 05:52:11;;;;;;;16.3;8.799999;;;;;;;-1.54;83.27246;95056.59;;;;